aviador You're here:

KCLK Decoded Metar

CLINTON in OK, USA
Report Time2017-04-27 17:15:00
UTC Time2017-04-27 17:00:02
Flight Rules vfr VFR
Wind160° at 16 Gusting to 22 kt
W.Decomp.*RWY 17: 15.3 kt HW 4.7 kt LCW
RWY 13: 14.7 kt HW 6.3 kt RCW
W.Rank160° ranks 1
Current wind is above 160° avg. (9.8)
Visibility9999 m
Phenomena:N/A
Clouds:N/A
Expected CloudBase > 6,000 ft AGL from Temp-Dew spread
CeilingNone
Temp17°C (ISA +5)
Dew Point02°C (37% RH)
AAT9.6°C
QNH1006 hPa
Density Alt2,562 ft
Elevation1,614 ft
Report Wrong Elevation
Raw Report
KCLK 271715Z AUTO 16016G22KT 10SM CLR 17/02 A2970 RMK AO2=

Extra information for KCLK:More info

Metar Taf Metar & Taf Last 4 Metars F.Rules Stats Wind Profile Meteogram Temp Stats Airport Information Weather charts Add Link Nearby VenuesMetar ALERT Operation Metar Decoded Social comments

AIRNAV info for KCLK